Time;durP1;ratioP1;P1;durP2;ratioP2;P2;SDS_P1;SDS_P2;PMS_P1;PMS_P2;Temp;Humidity;BMP_temperature;BMP_pressure;BME280_temperature;BME280_humidity;BME280_pressure;Samples;Min_cycle;Max_cycle;Signal;HPM_P1;HPM_P2
2024/01/06 00:00:10;;;;;;;7.63;5.07;;;;;;;;;;5018613;28;20053;-87
2024/01/06 00:02:40;;;;;;;5.57;4.00;;;;;;;;;;5017189;28;20050;-87
2024/01/06 00:05:09;;;;;;;5.70;4.20;;;;;;;;;;5022557;28;20046;-86
2024/01/06 00:07:37;;;;;;;5.88;3.78;;;;;;;;;;5022765;28;20049;-87
2024/01/06 00:10:06;;;;;;;7.70;4.18;;;;;;;;;;5015828;28;20483;-87
2024/01/06 00:12:35;;;;;;;6.47;3.92;;;;;;;;;;5021410;28;20041;-87
2024/01/06 00:15:03;;;;;;;5.30;4.22;;;;;;;;;;5016936;28;20046;-86
2024/01/06 00:17:32;;;;;;;5.90;4.05;;;;;;;;;;5015015;28;20066;-86
2024/01/06 00:20:02;;;;;;;5.78;3.72;;;;;;;;;;5021484;28;20128;-87
2024/01/06 00:22:31;;;;;;;6.32;3.90;;;;;;;;;;5017480;28;20041;-87
2024/01/06 00:24:59;;;;;;;5.55;3.85;;;;;;;;;;5019031;28;20409;-87
2024/01/06 00:27:28;;;;;;;4.13;3.22;;;;;;;;;;5017976;28;20498;-87
2024/01/06 00:29:56;;;;;;;4.53;3.42;;;;;;;;;;5021171;28;20045;-86
2024/01/06 00:32:24;;;;;;;5.45;3.58;;;;;;;;;;5020923;28;20050;-86
2024/01/06 00:34:53;;;;;;;3.80;3.08;;;;;;;;;;5017635;28;20100;-86
2024/01/06 00:37:23;;;;;;;6.60;3.67;;;;;;;;;;5021580;28;20096;-87
2024/01/06 00:39:51;;;;;;;5.38;3.33;;;;;;;;;;5021788;28;20057;-87
2024/01/06 00:42:20;;;;;;;5.47;3.25;;;;;;;;;;5018421;28;20495;-87
2024/01/06 00:44:48;;;;;;;4.18;3.22;;;;;;;;;;5018662;28;20053;-86
2024/01/06 00:47:17;;;;;;;3.95;3.22;;;;;;;;;;5020375;28;20104;-86
2024/01/06 00:49:45;;;;;;;3.33;2.90;;;;;;;;;;5019121;28;20061;-87
2024/01/06 00:52:14;;;;;;;4.25;3.30;;;;;;;;;;5015600;28;20132;-87
2024/01/06 00:54:43;;;;;;;5.45;3.17;;;;;;;;;;5018554;28;20042;-87
2024/01/06 00:57:12;;;;;;;4.10;3.35;;;;;;;;;;5015444;28;20418;-87
2024/01/06 00:59:40;;;;;;;5.22;3.30;;;;;;;;;;5015739;28;20058;-87
2024/01/06 01:02:09;;;;;;;3.60;3.15;;;;;;;;;;5018362;28;20045;-87
2024/01/06 01:04:37;;;;;;;4.32;2.63;;;;;;;;;;5017629;28;20142;-87
2024/01/06 01:07:05;;;;;;;4.05;2.88;;;;;;;;;;5014354;28;20054;-87
2024/01/06 01:09:34;;;;;;;4.40;3.10;;;;;;;;;;5015479;28;20487;-87
2024/01/06 01:12:04;;;;;;;5.63;3.67;;;;;;;;;;5018325;28;20049;-87
2024/01/06 01:14:32;;;;;;;5.20;4.00;;;;;;;;;;5023147;28;20096;-87
2024/01/06 01:17:01;;;;;;;6.70;4.20;;;;;;;;;;5014839;28;20045;-88
2024/01/06 01:19:29;;;;;;;5.38;3.83;;;;;;;;;;5015356;28;20490;-87
2024/01/06 01:21:58;;;;;;;6.28;4.20;;;;;;;;;;5017833;28;20057;-86
2024/01/06 01:24:26;;;;;;;5.78;4.22;;;;;;;;;;5015551;28;20061;-87
2024/01/06 01:26:55;;;;;;;5.22;3.70;;;;;;;;;;5016467;28;20065;-86
2024/01/06 01:29:24;;;;;;;6.45;4.03;;;;;;;;;;5024796;28;20049;-87
2024/01/06 01:31:53;;;;;;;6.25;4.00;;;;;;;;;;5023972;28;20107;-86
2024/01/06 01:34:21;;;;;;;6.07;3.63;;;;;;;;;;5025342;28;20072;-86
2024/01/06 01:36:50;;;;;;;5.63;3.33;;;;;;;;;;5025458;28;20112;-87
2024/01/06 01:39:19;;;;;;;4.50;3.25;;;;;;;;;;5018588;28;20050;-88
2024/01/06 01:41:47;;;;;;;4.78;3.28;;;;;;;;;;5020276;28;20421;-87
2024/01/06 01:44:16;;;;;;;4.85;3.00;;;;;;;;;;5018906;28;20058;-87
2024/01/06 01:46:46;;;;;;;4.63;3.08;;;;;;;;;;5018267;28;20074;-86
2024/01/06 01:49:14;;;;;;;4.80;3.10;;;;;;;;;;5019331;28;20112;-87
2024/01/06 01:51:44;;;;;;;4.07;2.75;;;;;;;;;;5020214;28;20041;-87
2024/01/06 01:54:12;;;;;;;4.95;3.10;;;;;;;;;;5024996;28;20041;-87
2024/01/06 01:56:41;;;;;;;4.95;2.80;;;;;;;;;;5024603;28;20562;-87
2024/01/06 01:59:11;;;;;;;4.03;2.95;;;;;;;;;;5025682;28;20057;-87
2024/01/06 02:01:40;;;;;;;4.00;2.45;;;;;;;;;;5022757;28;20961;-87
2024/01/06 02:04:10;;;;;;;4.60;2.75;;;;;;;;;;5022630;28;20540;-87
2024/01/06 02:06:38;;;;;;;3.53;2.80;;;;;;;;;;5020197;28;20050;-87
2024/01/06 02:09:07;;;;;;;4.05;2.95;;;;;;;;;;5016642;28;20132;-87
2024/01/06 02:11:35;;;;;;;4.13;2.90;;;;;;;;;;5020791;28;20050;-87
2024/01/06 02:14:05;;;;;;;2.95;2.38;;;;;;;;;;5025444;28;20045;-86
2024/01/06 02:16:33;;;;;;;5.45;2.63;;;;;;;;;;5017712;28;20050;-87
2024/01/06 02:19:02;;;;;;;3.33;2.63;;;;;;;;;;5017797;28;20108;-87
2024/01/06 02:21:33;;;;;;;4.50;2.75;;;;;;;;;;5019456;28;20053;-87
2024/01/06 02:24:02;;;;;;;3.88;2.67;;;;;;;;;;5020766;28;20056;-87
2024/01/06 02:26:31;;;;;;;5.20;2.60;;;;;;;;;;5023879;28;20107;-86
2024/01/06 02:28:59;;;;;;;4.25;2.92;;;;;;;;;;5021295;28;20169;-87
2024/01/06 02:31:27;;;;;;;4.07;2.70;;;;;;;;;;5018866;28;20049;-87
2024/01/06 02:33:56;;;;;;;4.63;3.40;;;;;;;;;;5017564;28;20050;-87
2024/01/06 02:36:25;;;;;;;3.50;2.53;;;;;;;;;;5017463;28;20574;-87
2024/01/06 02:38:53;;;;;;;4.95;3.10;;;;;;;;;;5017011;28;20050;-87
2024/01/06 02:41:23;;;;;;;3.85;2.67;;;;;;;;;;5018899;28;20057;-87
2024/01/06 02:43:51;;;;;;;4.35;2.72;;;;;;;;;;5017384;28;20084;-87
2024/01/06 02:46:20;;;;;;;4.55;3.40;;;;;;;;;;5021054;28;20045;-87
2024/01/06 02:48:48;;;;;;;5.28;3.85;;;;;;;;;;5017143;28;20100;-87
2024/01/06 02:51:16;;;;;;;4.82;3.55;;;;;;;;;;5018442;28;20546;-87
2024/01/06 02:53:45;;;;;;;4.85;2.85;;;;;;;;;;5024155;28;20057;-87
2024/01/06 02:56:13;;;;;;;4.32;3.08;;;;;;;;;;5024404;28;20093;-87
2024/01/06 02:58:43;;;;;;;3.45;2.53;;;;;;;;;;5016047;28;20513;-87
2024/01/06 03:01:13;;;;;;;3.05;2.58;;;;;;;;;;5020953;28;20541;-87
2024/01/06 03:03:41;;;;;;;3.45;2.22;;;;;;;;;;5022770;28;20050;-87
2024/01/06 03:06:10;;;;;;;4.10;2.50;;;;;;;;;;5023442;28;20151;-87
2024/01/06 03:08:38;;;;;;;3.78;2.55;;;;;;;;;;5022914;28;20049;-87
2024/01/06 03:11:07;;;;;;;3.55;2.80;;;;;;;;;;5022390;28;20057;-87
2024/01/06 03:13:35;;;;;;;3.33;2.50;;;;;;;;;;5018662;28;20526;-87
2024/01/06 03:16:06;;;;;;;4.70;2.85;;;;;;;;;;5022724;28;20452;-87
2024/01/06 03:18:34;;;;;;;4.57;2.80;;;;;;;;;;5023049;28;20050;-87
2024/01/06 03:21:03;;;;;;;3.15;2.50;;;;;;;;;;5016363;28;20465;-87
2024/01/06 03:23:32;;;;;;;3.72;2.80;;;;;;;;;;5023331;28;20080;-87
2024/01/06 03:26:00;;;;;;;3.78;2.90;;;;;;;;;;5021038;28;20057;-87
2024/01/06 03:28:28;;;;;;;3.83;2.72;;;;;;;;;;5023643;28;20132;-87
2024/01/06 03:30:57;;;;;;;3.00;2.30;;;;;;;;;;5017986;28;20073;-87
2024/01/06 03:33:26;;;;;;;4.75;3.30;;;;;;;;;;5015882;28;20253;-87
2024/01/06 03:35:55;;;;;;;2.95;2.65;;;;;;;;;;5021005;28;20069;-87
2024/01/06 03:38:23;;;;;;;3.67;2.90;;;;;;;;;;5016331;28;20112;-87
2024/01/06 03:40:52;;;;;;;3.35;2.40;;;;;;;;;;5016162;28;20175;-87
2024/01/06 03:43:20;;;;;;;3.83;2.78;;;;;;;;;;5015322;28;20494;-87
2024/01/06 03:45:48;;;;;;;3.03;2.47;;;;;;;;;;5021153;28;20046;-88
2024/01/06 03:48:17;;;;;;;3.08;2.20;;;;;;;;;;5017745;28;20246;-87
2024/01/06 03:50:47;;;;;;;3.05;2.30;;;;;;;;;;5016447;28;20418;-87
2024/01/06 03:53:15;;;;;;;3.70;2.75;;;;;;;;;;5022222;28;20053;-87
2024/01/06 03:55:43;;;;;;;2.75;2.17;;;;;;;;;;5016817;28;20058;-87
2024/01/06 03:58:12;;;;;;;3.58;2.30;;;;;;;;;;5015759;28;20474;-87
2024/01/06 04:00:40;;;;;;;3.15;2.28;;;;;;;;;;5015824;28;20417;-87
2024/01/06 04:03:09;;;;;;;2.55;2.22;;;;;;;;;;5021158;28;20058;-87
2024/01/06 04:05:37;;;;;;;2.17;1.92;;;;;;;;;;5022399;28;20056;-87
2024/01/06 04:08:08;;;;;;;4.10;2.03;;;;;;;;;;5021843;28;20049;-87
2024/01/06 04:10:36;;;;;;;2.05;1.73;;;;;;;;;;5021958;28;20050;-87
2024/01/06 04:13:04;;;;;;;1.77;1.65;;;;;;;;;;5019299;28;20103;-87
2024/01/06 04:15:33;;;;;;;4.70;1.77;;;;;;;;;;5018819;28;20402;-87
2024/01/06 04:18:03;;;;;;;1.65;1.55;;;;;;;;;;5015753;28;20136;-87
2024/01/06 04:20:32;;;;;;;2.15;1.60;;;;;;;;;;5021923;28;20056;-87
2024/01/06 04:23:01;;;;;;;1.50;1.35;;;;;;;;;;5016842;28;20046;-87
2024/01/06 04:25:30;;;;;;;2.72;1.42;;;;;;;;;;5019631;28;20097;-87
2024/01/06 04:27:59;;;;;;;1.60;1.30;;;;;;;;;;5020344;28;20065;-87
2024/01/06 04:30:27;;;;;;;2.33;1.58;;;;;;;;;;5015995;28;20534;-87
2024/01/06 04:32:57;;;;;;;1.65;1.45;;;;;;;;;;5016937;28;20907;-87
2024/01/06 04:35:25;;;;;;;2.25;1.52;;;;;;;;;;5017704;28;20049;-87
2024/01/06 04:37:54;;;;;;;1.10;0.90;;;;;;;;;;5016640;28;20057;-88
2024/01/06 04:40:22;;;;;;;1.23;1.10;;;;;;;;;;5016413;28;20146;-87
2024/01/06 04:42:52;;;;;;;1.20;1.00;;;;;;;;;;5021096;28;20061;-87
2024/01/06 04:45:23;;;;;;;1.85;1.00;;;;;;;;;;5017574;28;20080;-87
2024/01/06 04:47:52;;;;;;;0.82;0.70;;;;;;;;;;5018603;28;20054;-87
2024/01/06 04:50:21;;;;;;;0.90;0.80;;;;;;;;;;5015606;28;20049;-87
2024/01/06 04:52:49;;;;;;;0.60;0.60;;;;;;;;;;5016641;28;20042;-87
2024/01/06 04:55:18;;;;;;;0.70;0.70;;;;;;;;;;5018753;28;20388;-87
2024/01/06 04:57:46;;;;;;;1.35;0.50;;;;;;;;;;5015996;28;20057;-87
2024/01/06 05:00:16;;;;;;;0.60;0.60;;;;;;;;;;5015437;28;20042;-87
2024/01/06 05:02:45;;;;;;;0.50;0.47;;;;;;;;;;5021049;28;20045;-87
2024/01/06 05:05:13;;;;;;;0.63;0.50;;;;;;;;;;5025512;28;20048;-87
2024/01/06 05:07:42;;;;;;;0.82;0.50;;;;;;;;;;5019309;28;20054;-87
2024/01/06 05:10:10;;;;;;;0.50;0.50;;;;;;;;;;5019695;28;20050;-87
2024/01/06 05:12:39;;;;;;;0.55;0.55;;;;;;;;;;5023412;28;20092;-87
2024/01/06 05:15:07;;;;;;;0.95;0.50;;;;;;;;;;5020993;28;20045;-87
2024/01/06 05:17:37;;;;;;;0.50;0.50;;;;;;;;;;5019701;28;20061;-86
2024/01/06 05:20:07;;;;;;;0.40;0.40;;;;;;;;;;5026195;28;20053;-87
2024/01/06 05:22:35;;;;;;;0.63;0.63;;;;;;;;;;5021689;28;20053;-87
2024/01/06 05:25:03;;;;;;;0.65;0.60;;;;;;;;;;5021470;28;20081;-88
2024/01/06 05:27:32;;;;;;;0.50;0.50;;;;;;;;;;5024872;28;20061;-87
2024/01/06 05:30:00;;;;;;;0.40;0.40;;;;;;;;;;5026369;28;20124;-86
2024/01/06 05:32:28;;;;;;;0.52;0.50;;;;;;;;;;5022776;28;20053;-86
2024/01/06 05:34:58;;;;;;;0.57;0.52;;;;;;;;;;5022998;28;20042;-87
2024/01/06 05:37:27;;;;;;;0.60;0.60;;;;;;;;;;5024071;28;20112;-87
2024/01/06 05:39:55;;;;;;;0.50;0.50;;;;;;;;;;5018892;28;20127;-88
2024/01/06 05:42:24;;;;;;;0.50;0.50;;;;;;;;;;5021941;28;20054;-87
2024/01/06 05:44:52;;;;;;;0.50;0.50;;;;;;;;;;5024206;28;20055;-86
2024/01/06 05:47:20;;;;;;;1.00;0.50;;;;;;;;;;5026011;28;20050;-87
2024/01/06 05:49:49;;;;;;;0.60;0.60;;;;;;;;;;5024603;28;20136;-87
2024/01/06 05:52:19;;;;;;;0.40;0.40;;;;;;;;;;5024076;28;20104;-87
2024/01/06 05:54:47;;;;;;;0.50;0.50;;;;;;;;;;5023147;28;20057;-86
2024/01/06 05:57:16;;;;;;;0.63;0.50;;;;;;;;;;5024223;28;20056;-87
2024/01/06 05:59:44;;;;;;;0.57;0.50;;;;;;;;;;5025207;28;20041;-87
2024/01/06 06:02:13;;;;;;;1.35;0.77;;;;;;;;;;5020093;28;20073;-86
2024/01/06 06:04:42;;;;;;;0.77;0.75;;;;;;;;;;5024157;28;20061;-87
2024/01/06 06:07:10;;;;;;;0.90;0.80;;;;;;;;;;5017141;28;20048;-87
2024/01/06 06:09:40;;;;;;;0.70;0.70;;;;;;;;;;5020013;28;20480;-87
2024/01/06 06:12:09;;;;;;;0.65;0.60;;;;;;;;;;5022421;28;20108;-87
2024/01/06 06:14:37;;;;;;;0.90;0.90;;;;;;;;;;5017911;28;20054;-87
2024/01/06 06:17:06;;;;;;;2.08;1.08;;;;;;;;;;5020662;28;20461;-87
2024/01/06 06:19:34;;;;;;;1.58;0.90;;;;;;;;;;5024420;28;20499;-87
2024/01/06 06:22:03;;;;;;;1.63;1.30;;;;;;;;;;5022178;28;20125;-86
2024/01/06 06:24:31;;;;;;;1.35;1.02;;;;;;;;;;5019371;28;20049;-86
2024/01/06 06:27:01;;;;;;;0.80;0.75;;;;;;;;;;5018103;28;20057;-86
2024/01/06 06:29:29;;;;;;;3.03;1.10;;;;;;;;;;5017882;28;20152;-87
2024/01/06 06:31:59;;;;;;;1.27;0.98;;;;;;;;;;5019820;28;20569;-86
2024/01/06 06:34:27;;;;;;;1.38;1.00;;;;;;;;;;5021954;28;20155;-87
2024/01/06 06:36:56;;;;;;;1.10;1.00;;;;;;;;;;5017700;28;20061;-86
2024/01/06 06:39:24;;;;;;;1.33;1.08;;;;;;;;;;5019176;28;20073;-87
2024/01/06 06:41:53;;;;;;;1.65;0.90;;;;;;;;;;5018630;28;20060;-87
2024/01/06 06:44:23;;;;;;;2.13;1.13;;;;;;;;;;5020965;28;20333;-87
2024/01/06 06:46:52;;;;;;;1.23;1.00;;;;;;;;;;5017535;28;20057;-87
2024/01/06 06:49:20;;;;;;;3.33;1.25;;;;;;;;;;5018072;28;20061;-87
2024/01/06 06:51:49;;;;;;;1.27;1.02;;;;;;;;;;5018265;28;20053;-87
2024/01/06 06:54:18;;;;;;;2.25;1.00;;;;;;;;;;5018019;28;20099;-87
2024/01/06 06:56:47;;;;;;;2.70;0.95;;;;;;;;;;5022850;28;20041;-87
2024/01/06 06:59:15;;;;;;;1.73;1.05;;;;;;;;;;5024274;28;20111;-87
2024/01/06 07:01:45;;;;;;;1.75;0.90;;;;;;;;;;5019476;28;20053;-87
2024/01/06 07:04:13;;;;;;;1.80;1.00;;;;;;;;;;5020337;28;20058;-87
2024/01/06 07:06:42;;;;;;;2.35;1.15;;;;;;;;;;5016052;28;20057;-87
2024/01/06 07:09:10;;;;;;;2.90;1.08;;;;;;;;;;5017239;28;20053;-87
2024/01/06 07:11:39;;;;;;;1.60;1.30;;;;;;;;;;5022072;28;20053;-87
2024/01/06 07:14:07;;;;;;;2.08;1.42;;;;;;;;;;5017169;28;20045;-87
2024/01/06 07:16:35;;;;;;;1.85;1.27;;;;;;;;;;5021182;28;20072;-87
2024/01/06 07:19:05;;;;;;;4.80;1.45;;;;;;;;;;5022461;28;20402;-85
2024/01/06 07:21:34;;;;;;;0.88;0.88;;;;;;;;;;5021983;28;20046;-85
2024/01/06 07:24:02;;;;;;;3.15;1.48;;;;;;;;;;5020152;28;20057;-85
2024/01/06 07:26:31;;;;;;;1.88;1.42;;;;;;;;;;5016256;28;20041;-85
2024/01/06 07:28:59;;;;;;;5.93;1.65;;;;;;;;;;5018112;28;20080;-85
2024/01/06 07:31:28;;;;;;;2.90;1.48;;;;;;;;;;5017012;28;20046;-85
2024/01/06 07:33:57;;;;;;;1.98;1.40;;;;;;;;;;5022302;28;20542;-85
2024/01/06 07:36:27;;;;;;;1.70;1.30;;;;;;;;;;5020890;28;20058;-85
2024/01/06 07:38:55;;;;;;;3.50;1.05;;;;;;;;;;5016879;28;20045;-85
2024/01/06 07:41:23;;;;;;;1.42;1.17;;;;;;;;;;5017424;28;20041;-85
2024/01/06 07:43:52;;;;;;;1.90;1.10;;;;;;;;;;5015356;28;20053;-85
2024/01/06 07:46:20;;;;;;;2.20;1.00;;;;;;;;;;5018548;28;20490;-85
2024/01/06 07:48:49;;;;;;;0.93;0.82;;;;;;;;;;5015886;28;20491;-86
2024/01/06 07:51:17;;;;;;;2.83;1.40;;;;;;;;;;5018590;28;20058;-85
2024/01/06 07:53:47;;;;;;;1.20;0.90;;;;;;;;;;5016058;28;20056;-85
2024/01/06 07:56:16;;;;;;;2.25;1.10;;;;;;;;;;5016690;28;20073;-85
2024/01/06 07:58:44;;;;;;;1.50;1.10;;;;;;;;;;5022686;28;20058;-85
2024/01/06 08:01:13;;;;;;;1.23;1.10;;;;;;;;;;5016307;28;20049;-85
2024/01/06 08:03:41;;;;;;;2.83;1.27;;;;;;;;;;5019620;28;20057;-85
2024/01/06 08:06:10;;;;;;;2.13;1.17;;;;;;;;;;5020895;28;20473;-85
2024/01/06 08:08:38;;;;;;;1.48;1.10;;;;;;;;;;5020303;28;20050;-85
2024/01/06 08:11:08;;;;;;;3.75;1.23;;;;;;;;;;5016055;28;20060;-86
2024/01/06 08:13:37;;;;;;;1.80;1.23;;;;;;;;;;5018122;28;20057;-85
2024/01/06 08:16:05;;;;;;;1.67;1.15;;;;;;;;;;5018487;28;20053;-85
2024/01/06 08:18:34;;;;;;;1.92;1.38;;;;;;;;;;5020969;28;20046;-85
2024/01/06 08:21:02;;;;;;;1.88;1.30;;;;;;;;;;5017783;28;20073;-85
2024/01/06 08:23:31;;;;;;;1.55;1.23;;;;;;;;;;5016664;28;20108;-86
2024/01/06 08:25:59;;;;;;;2.05;1.10;;;;;;;;;;5019495;28;20053;-86
2024/01/06 08:28:29;;;;;;;2.35;1.15;;;;;;;;;;5016059;28;20069;-85
2024/01/06 08:30:58;;;;;;;2.83;1.25;;;;;;;;;;5015750;28;20074;-85
2024/01/06 08:33:26;;;;;;;2.47;1.15;;;;;;;;;;5020993;28;20057;-85
2024/01/06 08:35:55;;;;;;;1.30;1.17;;;;;;;;;;5017382;28;20052;-85
2024/01/06 08:38:23;;;;;;;3.65;1.38;;;;;;;;;;5022911;28;20390;-85
2024/01/06 08:40:53;;;;;;;2.97;1.10;;;;;;;;;;5025977;28;20052;-85
2024/01/06 08:43:22;;;;;;;2.35;1.30;;;;;;;;;;5022243;28;20134;-86
2024/01/06 08:45:51;;;;;;;2.03;1.15;;;;;;;;;;5022830;28;20096;-85
2024/01/06 08:48:21;;;;;;;3.33;1.42;;;;;;;;;;5025962;28;20100;-86
2024/01/06 08:50:50;;;;;;;3.33;1.30;;;;;;;;;;5022428;28;20049;-85
2024/01/06 08:53:19;;;;;;;1.30;1.02;;;;;;;;;;5022509;28;20082;-85
2024/01/06 08:55:47;;;;;;;1.90;1.10;;;;;;;;;;5024406;28;20073;-85
2024/01/06 08:58:16;;;;;;;2.22;1.13;;;;;;;;;;5025181;28;20083;-85
2024/01/06 09:00:44;;;;;;;1.08;0.98;;;;;;;;;;5021884;28;20466;-86
2024/01/06 09:03:14;;;;;;;2.70;1.15;;;;;;;;;;5022861;28;20144;-85
2024/01/06 09:05:43;;;;;;;1.20;0.90;;;;;;;;;;5020245;28;20441;-85
2024/01/06 09:08:11;;;;;;;1.40;1.17;;;;;;;;;;5019454;28;20073;-85
2024/01/06 09:10:39;;;;;;;1.90;0.90;;;;;;;;;;5021392;28;20053;-85
2024/01/06 09:13:08;;;;;;;0.80;0.80;;;;;;;;;;5022754;28;20111;-85
2024/01/06 09:15:36;;;;;;;1.17;1.00;;;;;;;;;;5024214;28;20462;-85
2024/01/06 09:18:05;;;;;;;1.23;0.88;;;;;;;;;;5020899;28;20049;-85
2024/01/06 09:20:35;;;;;;;1.85;0.95;;;;;;;;;;5020780;28;20068;-85
2024/01/06 09:23:03;;;;;;;1.38;0.85;;;;;;;;;;5021708;28;20050;-85
2024/01/06 09:25:32;;;;;;;2.53;0.98;;;;;;;;;;5018218;28;20054;-86
2024/01/06 09:28:00;;;;;;;2.35;0.70;;;;;;;;;;5020245;28;20489;-86
2024/01/06 09:30:29;;;;;;;3.75;0.90;;;;;;;;;;5019085;28;20060;-85
2024/01/06 09:32:57;;;;;;;2.10;1.02;;;;;;;;;;5023725;28;20296;-85
2024/01/06 09:35:26;;;;;;;1.90;0.90;;;;;;;;;;5020014;28;20053;-85
2024/01/06 09:37:56;;;;;;;2.50;0.88;;;;;;;;;;5018160;28;20070;-85
2024/01/06 09:40:25;;;;;;;1.52;0.98;;;;;;;;;;5018662;28;20107;-85
2024/01/06 09:42:54;;;;;;;1.35;0.90;;;;;;;;;;5023063;28;20090;-85
2024/01/06 09:45:23;;;;;;;1.10;0.90;;;;;;;;;;5023649;28;20057;-85
2024/01/06 09:47:52;;;;;;;1.85;1.13;;;;;;;;;;5018027;28;20056;-85
2024/01/06 09:50:21;;;;;;;2.35;1.20;;;;;;;;;;5021219;28;20418;-85
2024/01/06 09:52:53;;;;;;;1.27;1.10;;;;;;;;;;5021344;28;20504;-85
2024/01/06 09:55:26;;;;;;;1.92;1.10;;;;;;;;;;5024337;28;20037;-85
2024/01/06 09:57:55;;;;;;;1.33;0.95;;;;;;;;;;5024654;28;20042;-84
2024/01/06 10:00:24;;;;;;;2.40;0.90;;;;;;;;;;5025070;28;20512;-86
2024/01/06 10:02:52;;;;;;;1.02;0.90;;;;;;;;;;5023725;28;20049;-85
2024/01/06 10:05:21;;;;;;;2.08;0.90;;;;;;;;;;5024621;28;20062;-85
2024/01/06 10:07:49;;;;;;;3.38;1.10;;;;;;;;;;5026453;28;20536;-85
2024/01/06 10:10:19;;;;;;;1.85;1.20;;;;;;;;;;5019002;28;20129;-85
2024/01/06 10:12:49;;;;;;;2.70;1.27;;;;;;;;;;5018054;28;20049;-86
2024/01/06 10:15:18;;;;;;;3.10;1.27;;;;;;;;;;5020874;28;20361;-85
2024/01/06 10:17:46;;;;;;;1.98;1.20;;;;;;;;;;5017995;28;20049;-86
2024/01/06 10:20:15;;;;;;;2.72;1.20;;;;;;;;;;5026209;28;20092;-85
2024/01/06 10:22:44;;;;;;;4.88;1.77;;;;;;;;;;5020572;28;20128;-85
2024/01/06 10:25:13;;;;;;;1.85;1.58;;;;;;;;;;5022399;28;20084;-86
2024/01/06 10:27:42;;;;;;;2.65;1.40;;;;;;;;;;5021628;28;20042;-85
2024/01/06 10:30:14;;;;;;;4.05;1.50;;;;;;;;;;5024729;28;20049;-86
2024/01/06 10:32:43;;;;;;;1.42;1.25;;;;;;;;;;5020552;28;20057;-85
2024/01/06 10:35:11;;;;;;;1.33;1.23;;;;;;;;;;5017794;28;20512;-86
2024/01/06 10:37:43;;;;;;;1.30;1.20;;;;;;;;;;5020897;28;20060;-86
2024/01/06 10:40:11;;;;;;;1.50;1.23;;;;;;;;;;5016699;28;20046;-85
2024/01/06 10:42:40;;;;;;;3.10;1.42;;;;;;;;;;5021042;28;20056;-85
2024/01/06 10:45:09;;;;;;;1.50;1.15;;;;;;;;;;5023334;28;20548;-86
2024/01/06 10:47:40;;;;;;;2.03;1.35;;;;;;;;;;5024105;28;20085;-85
2024/01/06 10:50:09;;;;;;;4.20;1.60;;;;;;;;;;5016906;28;20107;-86
2024/01/06 10:52:39;;;;;;;3.35;1.77;;;;;;;;;;5022689;28;20038;-86
2024/01/06 10:55:08;;;;;;;2.35;1.48;;;;;;;;;;5019757;28;20053;-86
2024/01/06 10:57:40;;;;;;;3.92;2.03;;;;;;;;;;5023646;28;20058;-86
2024/01/06 11:00:10;;;;;;;3.65;1.90;;;;;;;;;;5023619;28;20099;-85
2024/01/06 11:02:41;;;;;;;2.65;1.80;;;;;;;;;;5024613;28;20399;-85
2024/01/06 11:05:11;;;;;;;2.97;1.77;;;;;;;;;;5015992;28;20434;-85
2024/01/06 11:07:41;;;;;;;3.35;1.83;;;;;;;;;;5023590;28;20052;-86
2024/01/06 11:10:12;;;;;;;6.03;1.95;;;;;;;;;;5020252;28;20050;-86
2024/01/06 11:12:41;;;;;;;2.78;1.70;;;;;;;;;;5021672;28;20057;-85
2024/01/06 11:15:10;;;;;;;2.20;1.50;;;;;;;;;;5021480;28;20073;-86
2024/01/06 11:17:53;;;;;;;4.53;1.75;;;;;;;;;;5022705;28;20057;-85
2024/01/06 11:20:22;;;;;;;2.20;1.65;;;;;;;;;;5023720;28;20111;-86
2024/01/06 11:22:51;;;;;;;2.03;1.65;;;;;;;;;;5021206;28;20502;-85
2024/01/06 11:25:20;;;;;;;4.28;1.77;;;;;;;;;;5016282;28;20462;-85
2024/01/06 11:27:49;;;;;;;3.53;1.73;;;;;;;;;;5020164;28;20127;-85
2024/01/06 11:30:21;;;;;;;3.00;1.95;;;;;;;;;;5018433;28;20056;-85
2024/01/06 11:32:49;;;;;;;2.05;1.70;;;;;;;;;;5020955;28;20075;-85
2024/01/06 11:35:19;;;;;;;2.47;1.70;;;;;;;;;;5023710;28;20045;-85
2024/01/06 11:37:56;;;;;;;3.20;1.98;;;;;;;;;;5020371;28;20049;-86
2024/01/06 11:40:26;;;;;;;2.67;1.85;;;;;;;;;;5016678;28;20368;-85
2024/01/06 11:43:05;;;;;;;2.47;2.03;;;;;;;;;;5018918;28;20076;-86
2024/01/06 11:45:34;;;;;;;3.00;1.70;;;;;;;;;;5017207;28;20042;-85
2024/01/06 11:48:03;;;;;;;2.95;1.98;;;;;;;;;;5015911;28;20982;-85
2024/01/06 11:50:34;;;;;;;2.53;1.90;;;;;;;;;;5019107;28;21003;-85
2024/01/06 11:53:03;;;;;;;2.20;1.90;;;;;;;;;;5019579;28;20054;-85
2024/01/06 11:55:32;;;;;;;2.72;1.92;;;;;;;;;;5018980;28;20050;-85
2024/01/06 11:58:01;;;;;;;4.15;2.05;;;;;;;;;;5016182;28;20056;-85
2024/01/06 12:00:30;;;;;;;3.80;1.90;;;;;;;;;;5017647;28;20141;-86
2024/01/06 12:02:59;;;;;;;2.45;1.75;;;;;;;;;;5015735;28;20076;-86
2024/01/06 12:05:28;;;;;;;3.05;2.00;;;;;;;;;;5016369;28;20046;-85
2024/01/06 12:07:59;;;;;;;6.88;2.50;;;;;;;;;;5017141;28;20053;-85
2024/01/06 12:10:28;;;;;;;5.30;2.35;;;;;;;;;;5018928;28;20042;-86
2024/01/06 12:13:00;;;;;;;3.40;2.03;;;;;;;;;;5019932;28;20065;-85
2024/01/06 12:15:29;;;;;;;7.35;2.40;;;;;;;;;;5015977;28;20487;-86
2024/01/06 12:17:57;;;;;;;2.75;1.95;;;;;;;;;;5018447;28;20083;-85
2024/01/06 12:20:28;;;;;;;3.42;2.40;;;;;;;;;;5016188;28;20048;-85
2024/01/06 12:23:00;;;;;;;5.45;2.40;;;;;;;;;;5022395;28;20063;-85
2024/01/06 12:25:33;;;;;;;5.53;2.40;;;;;;;;;;5015949;28;20049;-85
2024/01/06 12:28:07;;;;;;;4.85;2.10;;;;;;;;;;5015512;28;20050;-85
2024/01/06 12:30:36;;;;;;;3.50;2.10;;;;;;;;;;5017921;28;20053;-85
2024/01/06 12:33:05;;;;;;;4.00;2.20;;;;;;;;;;5018819;28;20092;-85
2024/01/06 12:35:34;;;;;;;3.80;1.67;;;;;;;;;;5017878;28;20133;-85
2024/01/06 12:38:06;;;;;;;3.60;2.30;;;;;;;;;;5015307;28;20053;-85
2024/01/06 12:40:37;;;;;;;3.72;2.28;;;;;;;;;;5019750;28;20125;-85
2024/01/06 12:43:06;;;;;;;5.07;2.38;;;;;;;;;;5020128;28;20053;-85
2024/01/06 12:45:35;;;;;;;4.15;2.17;;;;;;;;;;5016593;28;20490;-85
2024/01/06 12:48:03;;;;;;;3.03;2.03;;;;;;;;;;5015347;28;20069;-85
2024/01/06 12:50:32;;;;;;;3.55;2.03;;;;;;;;;;5015551;28;20100;-85
2024/01/06 12:53:00;;;;;;;7.72;2.15;;;;;;;;;;5020076;28;20053;-85
2024/01/06 12:55:30;;;;;;;3.28;2.15;;;;;;;;;;5020192;28;20502;-85
2024/01/06 12:58:01;;;;;;;4.05;1.90;;;;;;;;;;5016864;28;20042;-85
2024/01/06 13:00:29;;;;;;;3.75;2.25;;;;;;;;;;5021744;28;20502;-86
2024/01/06 13:03:01;;;;;;;3.67;2.10;;;;;;;;;;5016614;28;20057;-85
2024/01/06 13:05:29;;;;;;;3.08;2.15;;;;;;;;;;5022189;28;20490;-85
2024/01/06 13:07:58;;;;;;;3.00;2.10;;;;;;;;;;5022003;28;20054;-85
2024/01/06 13:10:27;;;;;;;4.75;2.10;;;;;;;;;;5017390;28;20127;-85
2024/01/06 13:12:56;;;;;;;5.32;2.50;;;;;;;;;;5018042;28;20053;-85
2024/01/06 13:15:25;;;;;;;3.08;2.20;;;;;;;;;;5017695;28;20281;-86
2024/01/06 13:17:53;;;;;;;5.45;2.63;;;;;;;;;;5020436;28;20073;-86
2024/01/06 13:20:22;;;;;;;6.53;3.33;;;;;;;;;;5015782;28;20048;-85
2024/01/06 13:22:51;;;;;;;4.63;2.95;;;;;;;;;;5018891;28;20563;-86
2024/01/06 13:25:19;;;;;;;6.03;2.95;;;;;;;;;;5020840;28;20439;-85
2024/01/06 13:27:48;;;;;;;6.55;2.88;;;;;;;;;;5018288;28;20070;-85
2024/01/06 13:30:18;;;;;;;4.20;2.30;;;;;;;;;;5018690;28;20064;-85
2024/01/06 13:32:50;;;;;;;2.90;2.40;;;;;;;;;;5023973;28;20684;-85
2024/01/06 13:35:19;;;;;;;3.80;2.50;;;;;;;;;;5025622;28;20049;-85
2024/01/06 13:37:51;;;;;;;3.85;2.47;;;;;;;;;;5023874;28;20050;-85
2024/01/06 13:40:20;;;;;;;2.63;2.20;;;;;;;;;;5018543;28;20049;-86
2024/01/06 13:42:48;;;;;;;2.92;2.13;;;;;;;;;;5020975;28;20049;-86
2024/01/06 13:45:19;;;;;;;2.92;2.00;;;;;;;;;;5023439;28;20493;-86
2024/01/06 13:47:47;;;;;;;3.88;1.88;;;;;;;;;;5025644;28;20062;-85
2024/01/06 13:50:17;;;;;;;2.20;2.00;;;;;;;;;;5022445;28;20060;-85
2024/01/06 13:52:46;;;;;;;3.10;2.03;;;;;;;;;;5020052;28;20045;-86
2024/01/06 13:55:14;;;;;;;2.67;1.90;;;;;;;;;;5019891;28;20069;-85
2024/01/06 13:57:43;;;;;;;3.38;2.13;;;;;;;;;;5018380;28;20050;-85
2024/01/06 14:00:14;;;;;;;4.47;2.10;;;;;;;;;;5021768;28;20132;-86
2024/01/06 14:02:48;;;;;;;2.17;1.95;;;;;;;;;;5023560;28;20053;-85
2024/01/06 14:05:17;;;;;;;3.92;2.10;;;;;;;;;;5025457;28;20077;-86
2024/01/06 14:07:48;;;;;;;2.92;1.80;;;;;;;;;;5023881;28;20060;-86
2024/01/06 14:10:17;;;;;;;3.33;2.30;;;;;;;;;;5024823;28;20045;-86
2024/01/06 14:12:45;;;;;;;3.35;1.98;;;;;;;;;;5022444;28;20052;-86
2024/01/06 14:15:13;;;;;;;4.60;1.85;;;;;;;;;;5024118;28;20048;-86
2024/01/06 14:17:49;;;;;;;4.28;2.10;;;;;;;;;;5024498;28;20345;-86
2024/01/06 14:20:19;;;;;;;3.58;2.15;;;;;;;;;;5022275;28;20046;-86
2024/01/06 14:22:48;;;;;;;4.97;2.40;;;;;;;;;;5024133;28;20042;-86
2024/01/06 14:25:18;;;;;;;3.90;1.90;;;;;;;;;;5018057;28;20049;-86
2024/01/06 14:27:47;;;;;;;2.72;2.08;;;;;;;;;;5021939;28;20057;-86
2024/01/06 14:30:15;;;;;;;2.70;1.90;;;;;;;;;;5023812;28;20076;-86
2024/01/06 14:32:44;;;;;;;2.75;1.92;;;;;;;;;;5023163;28;20422;-86
2024/01/06 14:35:14;;;;;;;2.53;1.80;;;;;;;;;;5020257;28;20450;-86
2024/01/06 14:37:45;;;;;;;2.30;1.58;;;;;;;;;;5017537;28;20089;-86
2024/01/06 14:40:13;;;;;;;3.90;2.67;;;;;;;;;;5022205;28;20045;-86
2024/01/06 14:42:42;;;;;;;3.65;1.73;;;;;;;;;;5018117;28;20288;-86
2024/01/06 14:45:11;;;;;;;2.22;1.58;;;;;;;;;;5024204;28;20191;-86
2024/01/06 14:47:40;;;;;;;3.35;1.67;;;;;;;;;;5024391;28;20132;-86
2024/01/06 14:50:09;;;;;;;2.28;1.90;;;;;;;;;;5024493;28;20530;-86
2024/01/06 14:52:37;;;;;;;2.35;1.92;;;;;;;;;;5017997;28;20049;-86